Time;durP1;ratioP1;P1;durP2;ratioP2;P2;SDS_P1;SDS_P2;PMS_P1;PMS_P2;Temp;Humidity;BMP_temperature;BMP_pressure;BME280_temperature;BME280_humidity;BME280_pressure;Samples;Min_cycle;Max_cycle;Signal;HPM_P1;HPM_P2
2023/03/16 00:01:25;;;;;;;12.63;6.55;;;;;;;;;;5087635;28;20036;-69
2023/03/16 00:03:50;;;;;;;12.15;6.43;;;;;;;;;;5085777;28;20031;-70
2023/03/16 00:06:15;;;;;;;13.67;6.43;;;;;;;;;;5085136;28;20077;-69
2023/03/16 00:08:42;;;;;;;11.33;6.37;;;;;;;;;;5085546;28;20702;-68
2023/03/16 00:11:07;;;;;;;12.80;6.63;;;;;;;;;;5085669;28;20276;-69
2023/03/16 00:13:32;;;;;;;14.07;6.63;;;;;;;;;;5084500;28;20483;-69
2023/03/16 00:15:59;;;;;;;12.20;7.00;;;;;;;;;;5083892;28;20028;-69
2023/03/16 00:18:28;;;;;;;12.20;6.75;;;;;;;;;;5084408;28;20086;-70
2023/03/16 00:20:54;;;;;;;16.25;7.28;;;;;;;;;;5086557;28;20035;-69
2023/03/16 00:23:25;;;;;;;12.25;7.03;;;;;;;;;;5082093;28;20766;-69
2023/03/16 00:25:52;;;;;;;17.95;8.15;;;;;;;;;;5084505;28;20112;-69
2023/03/16 00:28:18;;;;;;;15.50;8.65;;;;;;;;;;5082784;28;20024;-69
2023/03/16 00:30:46;;;;;;;20.80;8.73;;;;;;;;;;5082651;28;20070;-69
2023/03/16 00:33:11;;;;;;;14.27;7.57;;;;;;;;;;5086308;28;20017;-69
2023/03/16 00:35:36;;;;;;;18.20;8.13;;;;;;;;;;5086140;28;20397;-68
2023/03/16 00:38:02;;;;;;;17.03;8.33;;;;;;;;;;5085977;28;20035;-68
2023/03/16 00:40:29;;;;;;;15.45;8.07;;;;;;;;;;5083312;28;20020;-68
2023/03/16 00:42:54;;;;;;;17.48;8.15;;;;;;;;;;5081528;28;20024;-68
2023/03/16 00:45:19;;;;;;;16.33;8.70;;;;;;;;;;5086332;28;20028;-69
2023/03/16 00:47:45;;;;;;;24.53;10.20;;;;;;;;;;5081526;28;20103;-68
2023/03/16 00:50:10;;;;;;;21.00;8.77;;;;;;;;;;5086425;28;20316;-68
2023/03/16 00:52:35;;;;;;;19.02;9.20;;;;;;;;;;5081848;28;20434;-69
2023/03/16 00:55:03;;;;;;;21.37;9.53;;;;;;;;;;5083926;28;20031;-69
2023/03/16 00:57:29;;;;;;;18.02;8.30;;;;;;;;;;5079455;28;20281;-69
2023/03/16 00:59:54;;;;;;;17.65;8.60;;;;;;;;;;5077836;28;20026;-68
2023/03/16 01:02:22;;;;;;;17.50;8.25;;;;;;;;;;5083890;28;20654;-69
2023/03/16 01:04:48;;;;;;;17.90;9.32;;;;;;;;;;5082117;28;20028;-68
2023/03/16 01:07:13;;;;;;;24.02;9.90;;;;;;;;;;5075394;28;20028;-69
2023/03/16 01:09:39;;;;;;;15.95;8.52;;;;;;;;;;5079351;28;20021;-68
2023/03/16 01:12:06;;;;;;;20.67;9.70;;;;;;;;;;5079435;28;20028;-69
2023/03/16 01:14:33;;;;;;;18.88;9.35;;;;;;;;;;5084978;28;20600;-69
2023/03/16 01:16:59;;;;;;;17.75;9.05;;;;;;;;;;5082863;28;20072;-69
2023/03/16 01:19:24;;;;;;;18.02;8.93;;;;;;;;;;5083254;28;20463;-68
2023/03/16 01:21:49;;;;;;;22.67;9.60;;;;;;;;;;5084771;28;20039;-67
2023/03/16 01:24:14;;;;;;;21.47;9.60;;;;;;;;;;5083399;28;20031;-69
2023/03/16 01:26:40;;;;;;;20.63;9.53;;;;;;;;;;5086170;28;20280;-68
2023/03/16 01:29:05;;;;;;;16.90;8.97;;;;;;;;;;5081209;28;20165;-68
2023/03/16 01:31:30;;;;;;;17.57;8.93;;;;;;;;;;5075044;28;20086;-68
2023/03/16 01:33:56;;;;;;;19.33;9.55;;;;;;;;;;5082151;28;20447;-68
2023/03/16 01:36:21;;;;;;;17.90;8.70;;;;;;;;;;5079821;28;20039;-68
2023/03/16 01:38:46;;;;;;;17.70;8.30;;;;;;;;;;5082121;28;20020;-69
2023/03/16 01:41:12;;;;;;;16.48;9.05;;;;;;;;;;5082813;28;20285;-68
2023/03/16 01:43:38;;;;;;;17.65;8.88;;;;;;;;;;5084992;28;20462;-69
2023/03/16 01:46:04;;;;;;;18.90;9.40;;;;;;;;;;5082478;28;20035;-68
2023/03/16 01:48:55;;;;;;;19.75;8.05;;;;;;;;;;5079692;28;20501;-69
2023/03/16 01:51:30;;;;;;;18.30;9.07;;;;;;;;;;5062793;28;20040;-68
2023/03/16 01:53:57;;;;;;;19.92;8.93;;;;;;;;;;5081579;28;20103;-69
2023/03/16 01:56:29;;;;;;;20.88;9.27;;;;;;;;;;5081436;28;20089;-69
2023/03/16 01:58:57;;;;;;;17.00;7.80;;;;;;;;;;5078869;28;20036;-69
2023/03/16 02:01:23;;;;;;;19.05;8.60;;;;;;;;;;5078856;28;20024;-69
2023/03/16 02:03:48;;;;;;;17.98;7.80;;;;;;;;;;5084471;28;20039;-68
2023/03/16 02:06:15;;;;;;;20.77;8.13;;;;;;;;;;5077574;28;20051;-68
2023/03/16 02:08:41;;;;;;;15.82;7.70;;;;;;;;;;5079158;28;20272;-68
2023/03/16 02:11:07;;;;;;;16.52;8.00;;;;;;;;;;5085621;28;20059;-68
2023/03/16 02:13:35;;;;;;;18.70;7.97;;;;;;;;;;5084184;28;20451;-68
2023/03/16 02:16:01;;;;;;;18.33;7.25;;;;;;;;;;5085920;28;20490;-68
2023/03/16 02:18:27;;;;;;;18.52;7.22;;;;;;;;;;5081338;28;20233;-68
2023/03/16 02:20:57;;;;;;;14.90;6.90;;;;;;;;;;5077639;28;20723;-68
2023/03/16 02:23:24;;;;;;;15.68;7.00;;;;;;;;;;5079455;28;20704;-69
2023/03/16 02:26:07;;;;;;;14.85;7.22;;;;;;;;;;5085660;28;20494;-68
2023/03/16 02:28:36;;;;;;;15.05;7.38;;;;;;;;;;5083080;28;20062;-69
2023/03/16 02:31:01;;;;;;;14.70;7.65;;;;;;;;;;5079813;28;20020;-69
2023/03/16 02:33:27;;;;;;;19.25;7.70;;;;;;;;;;5085268;28;20027;-68
2023/03/16 02:35:53;;;;;;;15.13;6.70;;;;;;;;;;5082638;28;20032;-68
2023/03/16 02:38:18;;;;;;;16.90;6.80;;;;;;;;;;5085136;28;20107;-68
2023/03/16 02:40:44;;;;;;;14.32;7.63;;;;;;;;;;5083706;28;20273;-68
2023/03/16 02:43:17;;;;;;;15.80;6.82;;;;;;;;;;5084424;28;20447;-69
2023/03/16 02:45:52;;;;;;;13.18;6.85;;;;;;;;;;5076154;28;20059;-68
2023/03/16 02:48:25;;;;;;;14.38;6.93;;;;;;;;;;5081510;28;20050;-68
2023/03/16 02:50:52;;;;;;;15.90;6.53;;;;;;;;;;5079433;28;20025;-68
2023/03/16 02:53:18;;;;;;;17.48;6.93;;;;;;;;;;5075599;28;20028;-69
2023/03/16 02:55:44;;;;;;;13.27;6.93;;;;;;;;;;5083674;28;20074;-68
2023/03/16 02:58:10;;;;;;;14.27;7.07;;;;;;;;;;5081269;28;20019;-68
2023/03/16 03:00:36;;;;;;;16.55;7.93;;;;;;;;;;5096144;28;20503;-67
2023/03/16 03:03:01;;;;;;;15.68;7.63;;;;;;;;;;5081580;28;20036;-67
2023/03/16 03:05:26;;;;;;;14.87;7.37;;;;;;;;;;5082162;28;20107;-66
2023/03/16 03:07:51;;;;;;;15.10;7.50;;;;;;;;;;5085955;28;20553;-67
2023/03/16 03:10:18;;;;;;;19.80;8.15;;;;;;;;;;5082361;28;20054;-67
2023/03/16 03:12:48;;;;;;;18.92;8.45;;;;;;;;;;5080724;28;20039;-68
2023/03/16 03:15:13;;;;;;;;;;;;;;;;;;5080346;28;20526;-67
2023/03/16 03:17:38;;;;;;;16.88;7.78;;;;;;;;;;5079589;28;19919;-68
2023/03/16 03:20:12;;;;;;;16.60;8.52;;;;;;;;;;5079217;28;20028;-68
2023/03/16 03:22:37;;;;;;;18.35;8.02;;;;;;;;;;5084209;28;20051;-68
2023/03/16 03:25:03;;;;;;;21.23;8.98;;;;;;;;;;5081110;28;20238;-67
2023/03/16 03:27:28;;;;;;;21.38;8.73;;;;;;;;;;5080419;28;20028;-67
2023/03/16 03:29:53;;;;;;;20.00;8.37;;;;;;;;;;5080714;28;20499;-66
2023/03/16 03:32:18;;;;;;;20.37;8.90;;;;;;;;;;5075867;28;20285;-68
2023/03/16 03:34:44;;;;;;;20.27;8.93;;;;;;;;;;5081652;28;20273;-67
2023/03/16 03:37:09;;;;;;;18.57;8.33;;;;;;;;;;5083737;28;20274;-67
2023/03/16 03:39:34;;;;;;;21.38;8.32;;;;;;;;;;5082782;28;20275;-67
2023/03/16 03:42:01;;;;;;;24.73;8.73;;;;;;;;;;5083114;28;20027;-67
2023/03/16 03:44:27;;;;;;;18.17;7.57;;;;;;;;;;5082227;28;20081;-67
2023/03/16 03:46:52;;;;;;;22.52;8.05;;;;;;;;;;5079358;28;20032;-68
2023/03/16 03:49:17;;;;;;;21.77;8.45;;;;;;;;;;5078981;28;20078;-69
2023/03/16 03:51:43;;;;;;;21.33;8.13;;;;;;;;;;5081170;28;20650;-68
2023/03/16 03:54:08;;;;;;;18.38;8.30;;;;;;;;;;5083414;28;20275;-68
2023/03/16 03:56:34;;;;;;;16.58;8.35;;;;;;;;;;5085227;28;20036;-68
2023/03/16 03:58:59;;;;;;;19.33;8.60;;;;;;;;;;5078681;28;20020;-67
2023/03/16 04:01:24;;;;;;;16.38;7.88;;;;;;;;;;5083292;28;20486;-67
2023/03/16 04:03:50;;;;;;;17.67;7.35;;;;;;;;;;5082106;28;20036;-67
2023/03/16 04:06:15;;;;;;;15.32;6.80;;;;;;;;;;5080792;28;20040;-68
2023/03/16 04:08:41;;;;;;;15.70;7.07;;;;;;;;;;5079717;28;20113;-67
2023/03/16 04:11:06;;;;;;;17.40;8.10;;;;;;;;;;5077824;28;20789;-69
2023/03/16 04:13:31;;;;;;;17.80;7.20;;;;;;;;;;5076160;28;20028;-67
2023/03/16 04:15:57;;;;;;;16.57;7.30;;;;;;;;;;5075650;28;20810;-66
2023/03/16 04:18:23;;;;;;;17.50;7.57;;;;;;;;;;5079641;28;20304;-67
2023/03/16 04:20:48;;;;;;;17.38;7.43;;;;;;;;;;5084491;28;20024;-67
2023/03/16 04:23:15;;;;;;;20.13;7.65;;;;;;;;;;5083359;28;20393;-68
2023/03/16 04:25:41;;;;;;;15.15;7.88;;;;;;;;;;5077406;28;20752;-67
2023/03/16 04:28:06;;;;;;;19.10;8.27;;;;;;;;;;5081245;28;20032;-68
2023/03/16 04:30:31;;;;;;;14.00;6.53;;;;;;;;;;5078109;28;20020;-66
2023/03/16 04:32:56;;;;;;;14.33;7.83;;;;;;;;;;5079358;28;20347;-68
2023/03/16 04:35:22;;;;;;;19.83;8.27;;;;;;;;;;5080994;28;20320;-68
2023/03/16 04:37:47;;;;;;;15.13;7.03;;;;;;;;;;5080714;28;20029;-68
2023/03/16 04:40:16;;;;;;;15.07;7.97;;;;;;;;;;5084754;28;20276;-67
2023/03/16 04:42:42;;;;;;;17.75;7.53;;;;;;;;;;5082852;28;20031;-67
2023/03/16 04:45:07;;;;;;;14.60;6.70;;;;;;;;;;5080776;28;20055;-67
2023/03/16 04:47:33;;;;;;;19.02;7.95;;;;;;;;;;5083655;28;20063;-68
2023/03/16 04:49:59;;;;;;;13.33;7.23;;;;;;;;;;5082691;28;20039;-68
2023/03/16 04:52:25;;;;;;;20.17;9.20;;;;;;;;;;5083294;28;20456;-68
2023/03/16 04:54:50;;;;;;;16.25;7.32;;;;;;;;;;5086926;28;20115;-67
2023/03/16 04:57:18;;;;;;;18.60;7.53;;;;;;;;;;5080190;28;20081;-66
2023/03/16 04:59:43;;;;;;;18.63;8.73;;;;;;;;;;5081570;28;20024;-66
2023/03/16 05:02:08;;;;;;;18.33;8.43;;;;;;;;;;5083754;28;20023;-66
2023/03/16 05:04:33;;;;;;;25.77;8.97;;;;;;;;;;5083397;28;20024;-65
2023/03/16 05:06:59;;;;;;;20.67;8.07;;;;;;;;;;5080450;28;20325;-67
2023/03/16 05:09:24;;;;;;;19.58;8.05;;;;;;;;;;5079390;28;20793;-66
2023/03/16 05:11:50;;;;;;;19.75;8.38;;;;;;;;;;5075576;28;20561;-66
2023/03/16 05:14:15;;;;;;;15.98;7.68;;;;;;;;;;5081560;28;20024;-67
2023/03/16 05:16:40;;;;;;;17.55;8.00;;;;;;;;;;5086852;28;20059;-67
2023/03/16 05:19:06;;;;;;;18.70;8.68;;;;;;;;;;5088257;28;20440;-67
2023/03/16 05:21:33;;;;;;;34.33;13.05;;;;;;;;;;5083670;28;20023;-67
2023/03/16 05:23:58;;;;;;;26.52;10.60;;;;;;;;;;5084743;28;20032;-67
2023/03/16 05:26:26;;;;;;;26.07;10.17;;;;;;;;;;5085088;28;20092;-67
2023/03/16 05:28:51;;;;;;;17.13;8.27;;;;;;;;;;5080663;28;20280;-67
2023/03/16 05:31:17;;;;;;;26.95;10.82;;;;;;;;;;5085471;28;20028;-70
2023/03/16 05:33:43;;;;;;;21.67;9.38;;;;;;;;;;5079301;28;20081;-67
2023/03/16 05:36:08;;;;;;;21.23;8.77;;;;;;;;;;5083077;28;20394;-68
2023/03/16 05:38:35;;;;;;;21.45;8.90;;;;;;;;;;5080919;28;20026;-67
2023/03/16 05:41:03;;;;;;;22.80;9.00;;;;;;;;;;5078551;28;20039;-67
2023/03/16 05:43:28;;;;;;;19.77;8.02;;;;;;;;;;5079275;28;20055;-67
2023/03/16 05:45:54;;;;;;;20.10;8.25;;;;;;;;;;5084957;28;20637;-67
2023/03/16 05:48:20;;;;;;;20.20;8.73;;;;;;;;;;5082022;28;20088;-67
2023/03/16 05:50:45;;;;;;;18.73;8.13;;;;;;;;;;5084911;28;20043;-67
2023/03/16 05:53:11;;;;;;;17.63;7.75;;;;;;;;;;5082465;28;20035;-67
2023/03/16 05:55:36;;;;;;;19.05;8.20;;;;;;;;;;5083789;28;20028;-67
2023/03/16 05:58:01;;;;;;;15.63;7.55;;;;;;;;;;5082550;28;20102;-68
2023/03/16 06:00:28;;;;;;;16.30;7.70;;;;;;;;;;5078413;28;20066;-68
2023/03/16 06:02:53;;;;;;;24.73;9.15;;;;;;;;;;5082274;28;20328;-67
2023/03/16 06:05:20;;;;;;;23.90;9.65;;;;;;;;;;5083178;28;20028;-67
2023/03/16 06:07:46;;;;;;;21.17;9.40;;;;;;;;;;5079690;28;20027;-67
2023/03/16 06:10:11;;;;;;;24.58;9.50;;;;;;;;;;5080088;28;20036;-67
2023/03/16 06:12:37;;;;;;;19.48;8.55;;;;;;;;;;5085829;28;20043;-67
2023/03/16 06:15:06;;;;;;;15.85;8.15;;;;;;;;;;5085452;28;20073;-67
2023/03/16 06:17:31;;;;;;;21.55;8.70;;;;;;;;;;5084982;28;20052;-67
2023/03/16 06:19:56;;;;;;;29.05;9.10;;;;;;;;;;5084166;28;20736;-67
2023/03/16 06:22:22;;;;;;;15.87;7.90;;;;;;;;;;5078740;28;20074;-66
2023/03/16 06:24:48;;;;;;;21.23;8.68;;;;;;;;;;5076041;28;20039;-66
2023/03/16 06:27:13;;;;;;;18.20;8.27;;;;;;;;;;5081093;28;20036;-66
2023/03/16 06:29:38;;;;;;;20.20;8.53;;;;;;;;;;5084149;28;20672;-66
2023/03/16 06:32:03;;;;;;;15.95;9.02;;;;;;;;;;5079904;28;20508;-65
2023/03/16 06:34:29;;;;;;;18.23;8.18;;;;;;;;;;5081282;28;20055;-65
2023/03/16 06:36:54;;;;;;;22.60;9.37;;;;;;;;;;5086050;28;20020;-67
2023/03/16 06:39:20;;;;;;;17.73;8.23;;;;;;;;;;5083014;28;20273;-66
2023/03/16 06:41:45;;;;;;;18.65;8.07;;;;;;;;;;5083662;28;20268;-66
2023/03/16 06:44:11;;;;;;;21.67;9.03;;;;;;;;;;5081025;28;20028;-65
2023/03/16 06:46:36;;;;;;;56.67;12.25;;;;;;;;;;5079158;28;20755;-66
2023/03/16 06:49:03;;;;;;;30.35;12.07;;;;;;;;;;5079151;28;20036;-65
2023/03/16 06:51:28;;;;;;;21.88;9.45;;;;;;;;;;5082862;28;20047;-65
2023/03/16 06:53:54;;;;;;;18.55;8.23;;;;;;;;;;5084884;28;20019;-66
2023/03/16 06:56:19;;;;;;;18.93;7.37;;;;;;;;;;5083033;28;20031;-65
2023/03/16 06:58:44;;;;;;;20.75;9.07;;;;;;;;;;5075218;28;20855;-66
2023/03/16 07:01:11;;;;;;;19.13;8.07;;;;;;;;;;5076801;28;20036;-66
2023/03/16 07:03:36;;;;;;;14.02;7.13;;;;;;;;;;5083591;28;20280;-65
2023/03/16 07:06:02;;;;;;;19.35;7.88;;;;;;;;;;5078608;28;20047;-66
2023/03/16 07:08:27;;;;;;;19.40;7.95;;;;;;;;;;5079963;28;20032;-65
2023/03/16 07:10:53;;;;;;;16.38;8.10;;;;;;;;;;5080259;28;20032;-66
2023/03/16 07:13:18;;;;;;;19.63;7.93;;;;;;;;;;5074854;28;20035;-65
2023/03/16 07:15:43;;;;;;;15.80;7.93;;;;;;;;;;5076589;28;20516;-66
2023/03/16 07:18:11;;;;;;;12.37;6.83;;;;;;;;;;5079771;28;20287;-65
2023/03/16 07:20:36;;;;;;;17.15;8.55;;;;;;;;;;5081303;28;20059;-66
2023/03/16 07:23:01;;;;;;;19.13;8.38;;;;;;;;;;5086156;28;20056;-65
2023/03/16 07:25:27;;;;;;;16.70;7.47;;;;;;;;;;5067982;28;20020;-66
2023/03/16 07:27:52;;;;;;;23.23;9.27;;;;;;;;;;5081485;28;20276;-65
2023/03/16 07:30:17;;;;;;;21.10;8.80;;;;;;;;;;5083886;28;20052;-66
2023/03/16 07:32:42;;;;;;;20.38;8.23;;;;;;;;;;5080741;28;20019;-70
2023/03/16 07:35:09;;;;;;;22.53;7.53;;;;;;;;;;5081084;28;20036;-69
2023/03/16 07:37:35;;;;;;;13.23;6.43;;;;;;;;;;5084059;28;20810;-69
2023/03/16 07:40:01;;;;;;;24.30;6.63;;;;;;;;;;5078115;28;20058;-69
2023/03/16 07:42:26;;;;;;;21.50;7.32;;;;;;;;;;5079438;28;20066;-69
2023/03/16 07:44:51;;;;;;;14.87;7.33;;;;;;;;;;5083421;28;20035;-69
2023/03/16 07:47:16;;;;;;;16.63;7.57;;;;;;;;;;5079665;28;20032;-70
2023/03/16 07:49:43;;;;;;;15.15;7.20;;;;;;;;;;5084103;28;20846;-70
2023/03/16 07:52:08;;;;;;;16.98;7.50;;;;;;;;;;5081035;28;20028;-69
2023/03/16 07:54:34;;;;;;;18.45;7.18;;;;;;;;;;5082509;28;20043;-69
2023/03/16 07:57:00;;;;;;;15.32;6.97;;;;;;;;;;5083413;28;20488;-70
2023/03/16 07:59:25;;;;;;;19.30;7.25;;;;;;;;;;5081070;28;20028;-70
2023/03/16 08:01:50;;;;;;;17.40;7.80;;;;;;;;;;5083001;28;20181;-69
2023/03/16 08:04:15;;;;;;;11.70;5.50;;;;;;;;;;5080764;28;20378;-65
2023/03/16 08:06:41;;;;;;;14.80;6.43;;;;;;;;;;5078678;28;20027;-65
2023/03/16 08:09:06;;;;;;;14.77;6.90;;;;;;;;;;5079545;28;20031;-65
2023/03/16 08:11:31;;;;;;;15.43;7.07;;;;;;;;;;5081404;28;20235;-65
2023/03/16 08:13:57;;;;;;;13.50;6.73;;;;;;;;;;5085666;28;20027;-66
2023/03/16 08:16:22;;;;;;;24.47;7.20;;;;;;;;;;5087325;28;20069;-64
2023/03/16 08:18:49;;;;;;;17.02;7.10;;;;;;;;;;5086662;28;20670;-65
2023/03/16 08:21:14;;;;;;;18.52;7.38;;;;;;;;;;5085116;28;20073;-66
2023/03/16 08:23:39;;;;;;;10.30;5.53;;;;;;;;;;5086447;28;20375;-65
2023/03/16 08:26:07;;;;;;;14.57;6.28;;;;;;;;;;5086988;28;20475;-65
2023/03/16 08:28:33;;;;;;;13.60;6.55;;;;;;;;;;5085873;28;20070;-66
2023/03/16 08:30:58;;;;;;;16.50;6.80;;;;;;;;;;5086089;28;20048;-66
2023/03/16 08:33:24;;;;;;;19.40;7.53;;;;;;;;;;5084375;28;20024;-66
2023/03/16 08:35:50;;;;;;;17.38;7.45;;;;;;;;;;5080925;28;20020;-66
2023/03/16 08:38:15;;;;;;;18.25;6.97;;;;;;;;;;5081021;28;20462;-66
2023/03/16 08:40:47;;;;;;;16.23;7.82;;;;;;;;;;5085090;28;20475;-66
2023/03/16 08:43:16;;;;;;;16.52;6.45;;;;;;;;;;5082727;28;20117;-66
2023/03/16 08:45:43;;;;;;;19.13;7.35;;;;;;;;;;5083059;28;20020;-65
2023/03/16 08:48:11;;;;;;;18.45;6.75;;;;;;;;;;5083051;28;20028;-66
2023/03/16 08:50:38;;;;;;;15.98;8.00;;;;;;;;;;5084410;28;20055;-66
2023/03/16 08:53:03;;;;;;;24.45;8.48;;;;;;;;;;5087231;28;20043;-68
2023/03/16 08:55:28;;;;;;;16.87;6.80;;;;;;;;;;5085825;28;20284;-68
2023/03/16 08:57:54;;;;;;;20.17;8.10;;;;;;;;;;5086070;28;20027;-68
2023/03/16 09:00:19;;;;;;;19.08;8.27;;;;;;;;;;5085946;28;20351;-68
2023/03/16 09:02:45;;;;;;;13.98;6.93;;;;;;;;;;5084229;28;20046;-68
2023/03/16 09:05:12;;;;;;;14.75;6.45;;;;;;;;;;5084835;28;20497;-68
2023/03/16 09:07:38;;;;;;;17.55;6.65;;;;;;;;;;5083308;28;20466;-65
2023/03/16 09:10:04;;;;;;;15.88;6.78;;;;;;;;;;5083799;28;20455;-66
2023/03/16 09:12:30;;;;;;;17.08;7.22;;;;;;;;;;5084649;28;20040;-66
2023/03/16 09:14:55;;;;;;;19.55;5.88;;;;;;;;;;5079206;28;20077;-65
2023/03/16 09:17:21;;;;;;;15.97;5.90;;;;;;;;;;5084086;28;20504;-65
2023/03/16 09:19:46;;;;;;;18.92;7.05;;;;;;;;;;5083720;28;20028;-65
2023/03/16 09:22:12;;;;;;;14.95;6.55;;;;;;;;;;5086236;28;20339;-66
2023/03/16 09:24:37;;;;;;;14.90;6.07;;;;;;;;;;5081389;28;20032;-65
2023/03/16 09:27:04;;;;;;;13.20;6.13;;;;;;;;;;5086109;28;20028;-65
2023/03/16 09:29:29;;;;;;;17.48;5.85;;;;;;;;;;5084161;28;20076;-65
2023/03/16 09:31:54;;;;;;;17.90;6.60;;;;;;;;;;5085306;28;20044;-65
2023/03/16 09:34:20;;;;;;;16.77;7.25;;;;;;;;;;5085128;28;20016;-67
2023/03/16 09:36:45;;;;;;;10.97;5.27;;;;;;;;;;5086855;28;20066;-65
2023/03/16 09:39:12;;;;;;;17.07;7.13;;;;;;;;;;5081350;28;20065;-65
2023/03/16 09:41:43;;;;;;;13.90;6.15;;;;;;;;;;5084333;28;20285;-66
2023/03/16 09:44:09;;;;;;;16.23;6.55;;;;;;;;;;5084663;28;20047;-65
2023/03/16 09:46:37;;;;;;;21.33;7.90;;;;;;;;;;5083171;28;20060;-66
2023/03/16 09:49:02;;;;;;;20.00;6.80;;;;;;;;;;5083241;28;20474;-69
2023/03/16 09:51:28;;;;;;;12.52;5.82;;;;;;;;;;5086398;28;20039;-69
2023/03/16 09:53:56;;;;;;;15.50;5.43;;;;;;;;;;5082472;28;20485;-69
2023/03/16 09:56:28;;;;;;;13.98;6.10;;;;;;;;;;5078055;28;20052;-69
2023/03/16 09:58:54;;;;;;;19.17;6.85;;;;;;;;;;5081900;28;20016;-69
2023/03/16 10:01:33;;;;;;;14.05;5.45;;;;;;;;;;5086203;28;20032;-68
2023/03/16 10:04:18;;;;;;;16.30;6.82;;;;;;;;;;5080352;28;20024;-69
2023/03/16 10:07:03;;;;;;;16.73;6.35;;;;;;;;;;5081513;28;20533;-68
2023/03/16 10:09:28;;;;;;;12.68;5.95;;;;;;;;;;5084319;28;20051;-69
2023/03/16 10:11:56;;;;;;;15.83;6.50;;;;;;;;;;5085068;28;20056;-69
2023/03/16 10:14:31;;;;;;;13.00;5.50;;;;;;;;;;5084707;28;20044;-69
2023/03/16 10:16:56;;;;;;;12.75;5.20;;;;;;;;;;5083262;28;20035;-68
2023/03/16 10:19:41;;;;;;;10.73;5.37;;;;;;;;;;5081093;28;20044;-69
2023/03/16 10:22:16;;;;;;;8.63;4.45;;;;;;;;;;5080587;28;20488;-69
2023/03/16 10:24:50;;;;;;;10.48;4.82;;;;;;;;;;5081431;28;20033;-69
2023/03/16 10:27:19;;;;;;;8.05;5.00;;;;;;;;;;5081209;28;20019;-69
2023/03/16 10:29:45;;;;;;;13.77;5.30;;;;;;;;;;5084009;28;20116;-69
2023/03/16 10:32:12;;;;;;;11.18;5.70;;;;;;;;;;5082094;28;20111;-67
2023/03/16 10:34:37;;;;;;;15.85;7.15;;;;;;;;;;5084381;28;20084;-66
2023/03/16 10:37:03;;;;;;;18.73;7.00;;;;;;;;;;5082903;28;20032;-66
2023/03/16 10:39:34;;;;;;;13.85;5.97;;;;;;;;;;5081981;28;20097;-66
2023/03/16 10:41:59;;;;;;;14.95;5.43;;;;;;;;;;5081640;28;20487;-66
2023/03/16 10:44:26;;;;;;;16.30;6.63;;;;;;;;;;5082364;28;20024;-67
2023/03/16 10:47:02;;;;;;;13.38;5.70;;;;;;;;;;5083985;28;20024;-67
2023/03/16 10:49:41;;;;;;;13.35;5.75;;;;;;;;;;5079960;28;20817;-66
2023/03/16 10:52:18;;;;;;;17.35;7.53;;;;;;;;;;5078504;28;20024;-67
2023/03/16 10:55:07;;;;;;;17.13;6.35;;;;;;;;;;5082490;28;20031;-65
2023/03/16 10:57:33;;;;;;;18.87;5.83;;;;;;;;;;5066967;28;20144;-66
2023/03/16 11:00:06;;;;;;;11.82;5.25;;;;;;;;;;5082729;28;20032;-66
2023/03/16 11:02:32;;;;;;;27.25;8.05;;;;;;;;;;5082769;28;20038;-66
2023/03/16 11:04:58;;;;;;;18.42;7.50;;;;;;;;;;5080836;28;20024;-66
2023/03/16 11:07:24;;;;;;;13.88;5.53;;;;;;;;;;5082020;28;20028;-67
2023/03/16 11:09:53;;;;;;;18.90;7.10;;;;;;;;;;5082765;28;20107;-70
2023/03/16 11:12:22;;;;;;;14.77;5.97;;;;;;;;;;5080788;28;20052;-71
2023/03/16 11:14:47;;;;;;;16.50;5.70;;;;;;;;;;5080042;28;20084;-70
2023/03/16 11:17:33;;;;;;;18.95;6.30;;;;;;;;;;5085144;28;20031;-70
2023/03/16 11:20:11;;;;;;;13.63;5.18;;;;;;;;;;5078226;28;20043;-70
2023/03/16 11:22:37;;;;;;;9.43;4.88;;;;;;;;;;5081985;28;20490;-70
2023/03/16 11:25:03;;;;;;;11.35;4.68;;;;;;;;;;5083849;28;20036;-71
2023/03/16 11:27:28;;;;;;;14.95;5.32;;;;;;;;;;5078389;28;20024;-71
2023/03/16 11:30:04;;;;;;;10.63;4.80;;;;;;;;;;5077079;28;20032;-71
2023/03/16 11:32:36;;;;;;;13.23;5.55;;;;;;;;;;5071087;28;20028;-71
2023/03/16 11:35:10;;;;;;;10.05;4.50;;;;;;;;;;5079198;28;20158;-71
2023/03/16 11:37:42;;;;;;;9.63;4.88;;;;;;;;;;5083709;28;20498;-71
2023/03/16 11:40:14;;;;;;;11.48;4.80;;;;;;;;;;5081146;28;20398;-71
2023/03/16 11:42:59;;;;;;;11.25;4.55;;;;;;;;;;5078231;28;20543;-72
2023/03/16 11:45:41;;;;;;;11.38;4.72;;;;;;;;;;5054153;28;20055;-71
2023/03/16 11:48:25;;;;;;;12.48;5.80;;;;;;;;;;5078948;28;20040;-70
2023/03/16 11:50:57;;;;;;;17.58;6.10;;;;;;;;;;5073939;28;20044;-69
2023/03/16 11:53:38;;;;;;;11.57;5.00;;;;;;;;;;5076917;28;20115;-69
2023/03/16 11:56:07;;;;;;;12.27;5.85;;;;;;;;;;5078315;28;20047;-70
2023/03/16 11:58:51;;;;;;;13.90;5.40;;;;;;;;;;5079664;28;20063;-69
2023/03/16 12:01:17;;;;;;;14.52;5.72;;;;;;;;;;5077063;28;20459;-70
2023/03/16 12:04:03;;;;;;;15.38;6.28;;;;;;;;;;5080935;28;20040;-69
2023/03/16 12:06:38;;;;;;;11.80;5.68;;;;;;;;;;5079692;28;20023;-69
2023/03/16 12:09:05;;;;;;;10.65;5.07;;;;;;;;;;5075874;28;20064;-70
2023/03/16 12:11:35;;;;;;;15.32;5.75;;;;;;;;;;5074622;28;20052;-69
2023/03/16 12:14:14;;;;;;;12.02;4.45;;;;;;;;;;5077175;28;20043;-69
2023/03/16 12:16:45;;;;;;;9.02;4.97;;;;;;;;;;5078857;28;20032;-71
2023/03/16 12:19:31;;;;;;;12.10;5.28;;;;;;;;;;5074212;28;20151;-69
2023/03/16 12:22:07;;;;;;;10.57;5.00;;;;;;;;;;5077211;28;20050;-69
2023/03/16 12:24:35;;;;;;;10.68;5.13;;;;;;;;;;5079482;28;20028;-68
2023/03/16 12:27:01;;;;;;;12.50;5.40;;;;;;;;;;5080226;28;20088;-69
2023/03/16 12:29:32;;;;;;;9.27;5.03;;;;;;;;;;5080841;28;20036;-70
2023/03/16 12:32:07;;;;;;;10.00;4.97;;;;;;;;;;5079312;28;20615;-69
2023/03/16 12:34:35;;;;;;;11.90;6.45;;;;;;;;;;5077589;28;20023;-69
2023/03/16 12:37:03;;;;;;;15.88;6.63;;;;;;;;;;5076380;28;20024;-69
2023/03/16 12:39:44;;;;;;;13.10;6.00;;;;;;;;;;5075801;28;20032;-70
2023/03/16 12:42:09;;;;;;;11.82;6.60;;;;;;;;;;5082249;28;20032;-70
2023/03/16 12:44:35;;;;;;;14.43;7.80;;;;;;;;;;5080563;28;20031;-70
2023/03/16 12:47:14;;;;;;;13.95;6.93;;;;;;;;;;5076380;28;20047;-70
2023/03/16 12:49:40;;;;;;;13.67;6.27;;;;;;;;;;5082092;28;20442;-69
2023/03/16 12:52:07;;;;;;;13.63;6.30;;;;;;;;;;5080080;28;20137;-69
2023/03/16 12:54:32;;;;;;;14.13;6.55;;;;;;;;;;5081878;28;20490;-69
2023/03/16 12:57:02;;;;;;;13.52;6.65;;;;;;;;;;5079620;28;20035;-69
2023/03/16 12:59:38;;;;;;;11.27;5.13;;;;;;;;;;5081814;28;20053;-69
2023/03/16 13:02:09;;;;;;;12.50;6.30;;;;;;;;;;5083722;28;20032;-69
2023/03/16 13:04:38;;;;;;;13.23;5.80;;;;;;;;;;5080856;28;20035;-69
2023/03/16 13:07:06;;;;;;;10.10;5.88;;;;;;;;;;5082175;28;20435;-69
2023/03/16 13:09:34;;;;;;;12.52;5.55;;;;;;;;;;5080953;28;20062;-69
2023/03/16 13:12:03;;;;;;;13.20;6.45;;;;;;;;;;5085403;28;20485;-69
2023/03/16 13:14:34;;;;;;;13.20;6.25;;;;;;;;;;5080147;28;20032;-69
2023/03/16 13:17:20;;;;;;;14.30;6.10;;;;;;;;;;5081835;28;20502;-69
2023/03/16 13:20:05;;;;;;;12.23;5.72;;;;;;;;;;5078448;28;20725;-70
2023/03/16 13:22:42;;;;;;;14.63;6.05;;;;;;;;;;5082937;28;20040;-70
2023/03/16 13:25:35;;;;;;;12.07;5.30;;;;;;;;;;5083655;28;20028;-69
2023/03/16 13:28:01;;;;;;;9.95;5.63;;;;;;;;;;5081427;28;20020;-69
2023/03/16 13:30:28;;;;;;;9.73;5.18;;;;;;;;;;5080044;28;20024;-69
2023/03/16 13:32:55;;;;;;;14.07;5.90;;;;;;;;;;5081390;28;20027;-69
2023/03/16 13:35:23;;;;;;;12.32;6.63;;;;;;;;;;5083173;28;20170;-69
2023/03/16 13:37:49;;;;;;;14.23;6.50;;;;;;;;;;5082238;28;20093;-70
2023/03/16 13:40:34;;;;;;;16.92;7.80;;;;;;;;;;5088533;28;20028;-70
2023/03/16 13:43:00;;;;;;;12.57;6.15;;;;;;;;;;5079297;28;20025;-69
2023/03/16 13:45:32;;;;;;;12.45;5.45;;;;;;;;;;5082959;28;20020;-69
2023/03/16 13:48:00;;;;;;;11.48;5.93;;;;;;;;;;5084136;28;20051;-70
2023/03/16 13:50:25;;;;;;;10.90;6.20;;;;;;;;;;5081323;28;20035;-70
2023/03/16 13:53:02;;;;;;;11.40;6.23;;;;;;;;;;5082580;28;20554;-69
2023/03/16 13:55:33;;;;;;;16.48;6.40;;;;;;;;;;5079828;28;20285;-69
2023/03/16 13:57:58;;;;;;;15.80;6.35;;;;;;;;;;5081126;28;20028;-69
2023/03/16 14:00:25;;;;;;;20.48;7.80;;;;;;;;;;5078561;28;20035;-69
2023/03/16 14:02:55;;;;;;;16.45;7.18;;;;;;;;;;5078772;28;20035;-72
2023/03/16 14:05:20;;;;;;;;;;;;;;;;;;5084251;28;20040;-70
2023/03/16 14:07:47;;;;;;;11.68;5.97;;;;;;;;;;5085764;28;19957;-70
2023/03/16 14:10:15;;;;;;;13.00;6.35;;;;;;;;;;5082821;28;20024;-70
2023/03/16 14:13:01;;;;;;;15.40;6.50;;;;;;;;;;5081981;28;20035;-69
2023/03/16 14:15:29;;;;;;;11.70;5.90;;;;;;;;;;5064680;28;20036;-69
2023/03/16 14:18:03;;;;;;;17.38;7.38;;;;;;;;;;5083852;28;20056;-70
2023/03/16 14:20:29;;;;;;;17.45;8.25;;;;;;;;;;5085325;28;20055;-70
2023/03/16 14:22:55;;;;;;;19.23;7.80;;;;;;;;;;5084587;28;20502;-70
2023/03/16 14:25:24;;;;;;;19.53;8.20;;;;;;;;;;5083783;28;20024;-69
2023/03/16 14:27:59;;;;;;;21.90;10.23;;;;;;;;;;5081667;28;20020;-69
2023/03/16 14:30:26;;;;;;;18.35;7.78;;;;;;;;;;5082767;28;20027;-70
2023/03/16 14:32:59;;;;;;;17.35;8.05;;;;;;;;;;5076451;28;20474;-69
2023/03/16 14:35:26;;;;;;;14.77;6.55;;;;;;;;;;5084060;28;20038;-70